Time;durP1;ratioP1;P1;durP2;ratioP2;P2;SDS_P1;SDS_P2;PMS_P1;PMS_P2;Temp;Humidity;BMP_temperature;BMP_pressure;BME280_temperature;BME280_humidity;BME280_pressure;Samples;Min_cycle;Max_cycle;Signal;HPM_P1;HPM_P2
2021/03/20 00:01:37;;;;;;;10.13;3.42;;;;;;;-5.98;75.74;100434.95;1764067;80;21208;-73
2021/03/20 00:04:05;;;;;;;11.73;5.40;;;;;;;-5.97;76.47;100446.84;1759224;79;21254;-73
2021/03/20 00:06:40;;;;;;;9.28;3.65;;;;;;;-5.93;76.71;100444.87;1754093;80;21204;-73
2021/03/20 00:09:11;;;;;;;6.95;3.25;;;;;;;-5.90;76.46;100447.47;1752696;80;21210;-73
2021/03/20 00:11:42;;;;;;;8.40;3.80;;;;;;;-5.87;76.65;100453.92;1731796;81;21172;-74
2021/03/20 00:14:13;;;;;;;5.58;3.08;;;;;;;-5.85;76.10;100459.92;1731553;81;21210;-72
2021/03/20 00:16:39;;;;;;;6.83;3.02;;;;;;;-5.84;76.15;100457.83;1726194;81;21212;-73
2021/03/20 00:19:06;;;;;;;6.90;3.05;;;;;;;-5.84;75.90;100454.01;1726926;81;21542;-73
2021/03/20 00:21:34;;;;;;;3.95;1.90;;;;;;;-5.85;75.81;100451.02;1728604;80;21203;-73
2021/03/20 00:24:00;;;;;;;6.15;3.17;;;;;;;-5.88;75.81;100449.63;1730040;81;21266;-73
2021/03/20 00:26:27;;;;;;;5.35;2.52;;;;;;;-5.89;76.10;100447.91;1725967;81;21181;-72
2021/03/20 00:28:55;;;;;;;5.20;2.17;;;;;;;-5.93;75.73;100448.69;1730102;81;21227;-73
2021/03/20 00:31:22;;;;;;;5.95;2.12;;;;;;;-5.98;75.86;100441.31;1729233;81;21161;-72
2021/03/20 00:33:49;;;;;;;9.83;2.22;;;;;;;-6.03;76.11;100447.94;1733104;81;21245;-72
2021/03/20 00:36:18;;;;;;;5.05;2.42;;;;;;;-6.10;75.63;100451.56;1732489;81;21141;-72
2021/03/20 00:38:46;;;;;;;6.05;2.55;;;;;;;-6.16;76.27;100443.75;1729381;81;21101;-73
2021/03/20 00:41:14;;;;;;;3.67;2.27;;;;;;;-6.19;75.89;100441.11;1728565;81;21280;-73
2021/03/20 00:43:40;;;;;;;5.90;2.45;;;;;;;-6.23;75.82;100441.81;1726734;81;21215;-72
2021/03/20 00:46:10;;;;;;;5.30;1.95;;;;;;;-6.27;75.85;100437.45;1731445;81;21696;-73
2021/03/20 00:48:41;;;;;;;3.27;1.95;;;;;;;-6.32;76.09;100441.11;1726830;82;21254;-73
2021/03/20 00:51:09;;;;;;;4.35;2.55;;;;;;;-6.33;76.50;100435.59;1734848;81;21252;-73
2021/03/20 00:53:37;;;;;;;3.98;2.02;;;;;;;-6.33;76.07;100434.70;1728870;81;21106;-72
2021/03/20 00:56:05;;;;;;;5.03;1.95;;;;;;;-6.33;76.07;100438.51;1730207;81;21211;-72
2021/03/20 00:58:39;;;;;;;7.67;2.25;;;;;;;-6.31;76.06;100433.08;1734115;81;22041;-73
2021/03/20 01:01:14;;;;;;;6.95;2.17;;;;;;;-6.25;76.01;100434.53;1732547;81;21117;-72
2021/03/20 01:03:41;;;;;;;5.58;2.35;;;;;;;-6.19;76.05;100446.20;1729641;81;21121;-73
2021/03/20 01:06:24;;;;;;;;;;;;;;;-6.07;76.07;100446.13;1734681;80;21237;-73
2021/03/20 01:08:54;;;;;;;5.95;2.40;;;;;;;-6.00;76.02;100449.30;1739061;81;20290;-72
2021/03/20 01:11:25;;;;;;;5.72;2.70;;;;;;;-5.93;75.99;100446.14;1735153;81;22601;-72
2021/03/20 01:13:53;;;;;;;4.75;2.25;;;;;;;-5.90;76.03;100441.11;1737710;81;21243;-73
2021/03/20 01:16:49;;;;;;;3.83;2.00;;;;;;;-5.84;76.00;100443.84;1762203;79;22520;-73
2021/03/20 01:19:16;;;;;;;5.62;2.20;;;;;;;-5.86;76.03;100442.92;1735967;80;21008;-74
2021/03/20 01:21:43;;;;;;;4.17;2.17;;;;;;;-5.84;75.98;100443.84;1737183;81;21262;-71
2021/03/20 01:24:11;;;;;;;3.37;2.35;;;;;;;-5.84;76.17;100441.30;1729143;81;21056;-71
2021/03/20 01:26:38;;;;;;;8.25;3.10;;;;;;;-5.83;76.14;100445.55;1728677;80;21561;-72
2021/03/20 01:29:05;;;;;;;5.67;2.55;;;;;;;-5.82;76.14;100446.02;1733601;81;28302;-71
2021/03/20 01:31:32;;;;;;;6.33;2.40;;;;;;;-5.80;76.83;100448.19;1735678;81;21138;-71
2021/03/20 01:33:59;;;;;;;7.37;3.00;;;;;;;-5.77;76.32;100449.96;1733574;81;21356;-69
2021/03/20 01:36:26;;;;;;;4.60;2.45;;;;;;;-5.76;76.36;100450.02;1728898;81;21009;-71
2021/03/20 01:38:53;;;;;;;8.13;2.35;;;;;;;-5.74;76.27;100448.39;1729326;81;21201;-71
2021/03/20 01:41:24;;;;;;;6.15;2.80;;;;;;;-5.70;76.48;100452.74;1738644;81;21108;-71
2021/03/20 01:43:52;;;;;;;5.17;2.65;;;;;;;-5.69;76.47;100446.83;1739392;81;21394;-73
2021/03/20 01:46:42;;;;;;;6.70;2.22;;;;;;;-5.67;76.58;100441.38;1741739;81;21611;-72
2021/03/20 01:49:24;;;;;;;6.60;2.67;;;;;;;-5.67;77.17;100440.11;1738734;81;21062;-72
2021/03/20 01:52:11;;;;;;;5.15;2.22;;;;;;;-5.65;76.66;100435.94;1736856;81;21605;-73
2021/03/20 01:55:06;;;;;;;3.85;2.35;;;;;;;-5.65;77.05;100433.39;1735435;81;21197;-73
2021/03/20 01:57:54;;;;;;;5.15;2.50;;;;;;;-5.66;77.25;100435.50;1742194;81;21171;-73
2021/03/20 02:00:29;;;;;;;6.75;2.27;;;;;;;-5.67;76.58;100437.56;1710109;81;21586;-73
2021/03/20 02:02:57;;;;;;;2.98;2.12;;;;;;;-5.65;76.60;100428.30;1738455;81;21227;-72
2021/03/20 02:05:27;;;;;;;;;;;;;;;-5.66;76.63;100429.14;1738793;81;21167;-72
2021/03/20 02:07:55;;;;;;;5.72;2.60;;;;;;;-5.64;76.62;100441.47;1743161;81;20296;-72
2021/03/20 02:10:25;;;;;;;5.90;2.60;;;;;;;-5.64;76.64;100438.92;1741911;81;21140;-70
2021/03/20 02:12:56;;;;;;;6.58;2.72;;;;;;;-5.64;76.63;100445.28;1730716;81;21214;-71
2021/03/20 02:15:40;;;;;;;4.25;2.10;;;;;;;-5.63;76.60;100436.86;1733429;81;21706;-72
2021/03/20 02:18:46;;;;;;;8.13;2.60;;;;;;;-5.58;76.59;100437.39;1736856;81;21552;-72
2021/03/20 02:21:37;;;;;;;5.80;2.57;;;;;;;-5.58;76.53;100441.20;1737511;81;21194;-72
2021/03/20 02:24:21;;;;;;;6.85;2.72;;;;;;;-5.56;76.74;100442.97;1720438;80;21163;-73
2021/03/20 02:27:42;;;;;;;7.37;2.83;;;;;;;-5.57;76.58;100439.98;1737190;80;21692;-73
2021/03/20 02:31:06;;;;;;;4.83;2.45;;;;;;;-5.55;76.55;100448.92;1737082;81;21039;-73
2021/03/20 02:34:02;;;;;;;4.55;2.67;;;;;;;-5.58;76.55;100438.66;1734679;81;21177;-73
2021/03/20 02:36:57;;;;;;;4.28;2.15;;;;;;;-5.59;76.54;100436.53;1736026;81;21661;-72
2021/03/20 02:40:04;;;;;;;5.15;2.33;;;;;;;-5.58;76.59;100436.11;1735778;81;21216;-73
2021/03/20 02:42:42;;;;;;;5.17;2.35;;;;;;;-5.57;76.67;100434.02;1738054;81;21601;-72
2021/03/20 02:45:54;;;;;;;6.75;1.92;;;;;;;-5.58;76.61;100434.42;1741170;81;21186;-73
2021/03/20 02:48:30;;;;;;;2.77;1.82;;;;;;;-5.57;76.64;100432.73;1655763;84;21259;-72
2021/03/20 02:51:24;;;;;;;6.17;2.12;;;;;;;-5.57;77.03;100440.37;1672430;84;21613;-73
2021/03/20 02:54:14;;;;;;;3.55;1.90;;;;;;;-5.56;77.50;100447.20;1658687;85;21200;-73
2021/03/20 02:57:06;;;;;;;3.33;1.72;;;;;;;-5.58;78.30;100446.30;1681399;83;21291;-73
2021/03/20 02:59:38;;;;;;;4.83;2.47;;;;;;;-5.58;77.50;100439.93;1685356;83;21233;-73
2021/03/20 03:02:09;;;;;;;8.85;2.05;;;;;;;-5.60;77.97;100439.02;1675188;83;21258;-73
2021/03/20 03:04:54;;;;;;;5.53;1.72;;;;;;;-5.60;77.48;100440.28;1650500;85;21584;-74
2021/03/20 03:07:44;;;;;;;2.65;1.60;;;;;;;-5.57;77.74;100440.37;1661864;85;21602;-72
2021/03/20 03:10:28;;;;;;;4.45;1.30;;;;;;;-5.54;77.53;100435.41;1657515;84;21653;-73
2021/03/20 03:13:16;;;;;;;5.33;1.32;;;;;;;-5.53;78.31;100434.57;1660798;84;21164;-73
2021/03/20 03:15:48;;;;;;;3.55;1.67;;;;;;;-5.51;78.62;100441.84;1677216;83;22372;-73
2021/03/20 03:18:29;;;;;;;2.42;1.37;;;;;;;-5.51;78.15;100443.13;1649156;85;21173;-73
2021/03/20 03:21:01;;;;;;;4.20;1.40;;;;;;;-5.51;77.89;100427.85;1675450;84;21190;-73
2021/03/20 03:23:32;;;;;;;5.22;1.70;;;;;;;-5.49;78.66;100446.55;1676910;84;21742;-73
2021/03/20 03:26:16;;;;;;;4.00;1.45;;;;;;;-5.53;78.17;100444.75;1681478;84;21206;-73
2021/03/20 03:28:57;;;;;;;3.22;1.90;;;;;;;-5.53;77.96;100449.84;1651279;85;21215;-73
2021/03/20 03:31:38;;;;;;;2.40;1.47;;;;;;;-5.50;77.86;100453.33;1677119;84;21716;-72
2021/03/20 03:34:10;;;;;;;2.80;1.98;;;;;;;-5.45;77.76;100454.75;1675789;85;21211;-72
2021/03/20 03:36:45;;;;;;;2.80;1.32;;;;;;;-5.41;77.69;100442.55;1673668;83;21686;-73
2021/03/20 03:39:17;;;;;;;5.10;2.02;;;;;;;-5.41;77.74;100445.09;1679570;84;21198;-74
2021/03/20 03:41:44;;;;;;;3.62;2.00;;;;;;;-5.42;77.55;100449.73;1681543;83;21635;-71
2021/03/20 03:44:11;;;;;;;3.42;1.90;;;;;;;-5.42;77.51;100435.74;1682600;83;21234;-72
2021/03/20 03:46:45;;;;;;;5.08;2.00;;;;;;;-5.39;77.49;100444.73;1682771;83;21209;-72
2021/03/20 03:49:18;;;;;;;7.25;3.00;;;;;;;-5.41;77.33;100445.09;1653201;84;21391;-72
2021/03/20 03:51:45;;;;;;;4.00;1.70;;;;;;;-5.39;77.32;100443.46;1684285;83;21680;-73
2021/03/20 03:54:13;;;;;;;5.55;2.80;;;;;;;-5.39;77.33;100451.09;1685013;84;21258;-73
2021/03/20 03:56:48;;;;;;;5.30;2.17;;;;;;;-5.40;77.30;100440.47;1681810;84;21622;-71
2021/03/20 03:59:32;;;;;;;5.92;2.92;;;;;;;-5.38;77.35;100448.99;1681628;84;21200;-73
2021/03/20 04:02:23;;;;;;;9.45;2.80;;;;;;;-5.38;77.29;100447.72;1679205;84;21660;-73
2021/03/20 04:05:07;;;;;;;4.42;2.27;;;;;;;-5.41;77.22;100443.82;1678174;83;21214;-72
2021/03/20 04:07:58;;;;;;;5.70;2.55;;;;;;;-5.40;77.21;100457.02;1682971;84;21201;-72
2021/03/20 04:10:41;;;;;;;7.67;2.58;;;;;;;-5.43;77.20;100462.02;1678191;83;21614;-72
2021/03/20 04:13:25;;;;;;;3.25;2.17;;;;;;;-5.50;77.07;100451.20;1683162;84;21173;-73
2021/03/20 04:16:10;;;;;;;8.23;3.00;;;;;;;-5.58;77.02;100450.11;1683040;83;21659;-73
2021/03/20 04:19:24;;;;;;;6.78;3.08;;;;;;;-5.68;76.97;100454.93;1682186;83;21811;-72
2021/03/20 04:22:06;;;;;;;8.00;2.95;;;;;;;-5.80;76.91;100453.27;1681213;83;21219;-72
2021/03/20 04:25:14;;;;;;;8.33;4.12;;;;;;;-5.94;76.89;100448.20;1681442;83;21260;-73
2021/03/20 04:27:45;;;;;;;8.78;4.60;;;;;;;-6.07;76.78;100444.85;1665102;84;21843;-72
2021/03/20 04:30:22;;;;;;;12.05;4.67;;;;;;;-6.23;76.90;100443.08;1673909;84;22413;-72
2021/03/20 04:33:01;;;;;;;9.58;6.15;;;;;;;-6.33;76.89;100435.97;1666168;85;21659;-73
2021/03/20 04:35:44;;;;;;;10.63;4.62;;;;;;;-6.40;76.98;100429.84;1828695;77;21009;-71
2021/03/20 04:38:12;;;;;;;7.22;4.47;;;;;;;-6.49;77.00;100429.96;1808163;78;21099;-73
2021/03/20 04:40:50;;;;;;;6.67;3.72;;;;;;;-6.54;76.95;100424.30;1808972;78;21842;-73
2021/03/20 04:43:23;;;;;;;5.70;2.92;;;;;;;-6.64;77.00;100423.53;1804819;78;21086;-73
2021/03/20 04:46:04;;;;;;;4.78;3.15;;;;;;;-6.68;77.00;100434.42;1807968;78;21031;-73
2021/03/20 04:48:39;;;;;;;5.45;2.80;;;;;;;-6.71;77.01;100425.43;1803676;78;21626;-72
2021/03/20 04:51:32;;;;;;;7.37;3.00;;;;;;;-6.69;77.15;100427.63;1801012;78;21015;-73
2021/03/20 04:54:14;;;;;;;5.35;2.52;;;;;;;-6.67;77.11;100423.44;1806022;78;22012;-73
2021/03/20 04:56:54;;;;;;;7.22;3.83;;;;;;;-6.67;77.21;100427.66;1803270;78;21041;-73
2021/03/20 04:59:50;;;;;;;6.95;3.02;;;;;;;-6.67;77.16;100433.59;1738881;80;21600;-73
2021/03/20 05:02:31;;;;;;;7.00;3.93;;;;;;;-6.80;76.79;100432.75;1742669;80;21147;-74
2021/03/20 05:05:18;;;;;;;6.05;3.42;;;;;;;-6.98;76.69;100435.09;1791899;78;22550;-72
2021/03/20 05:07:46;;;;;;;5.80;3.02;;;;;;;-7.08;76.87;100439.41;1769106;80;21022;-73
2021/03/20 05:10:18;;;;;;;11.03;3.90;;;;;;;-7.08;77.13;100438.14;1766871;80;21652;-73
2021/03/20 05:13:09;;;;;;;9.95;3.33;;;;;;;-7.09;76.98;100424.97;1739396;80;21661;-72
2021/03/20 05:15:36;;;;;;;6.60;3.17;;;;;;;-7.07;77.04;100427.16;1766330;80;21602;-72
2021/03/20 05:18:03;;;;;;;;;;;;;;;-7.01;76.95;100427.37;1771459;80;22374;-73
2021/03/20 05:20:30;;;;;;;;;;;;;;;-7.01;76.77;100422.70;1768642;80;20508;-73
2021/03/20 05:22:57;;;;;;;6.60;3.58;;;;;;;-7.04;76.77;100417.11;1773029;80;21017;-72
2021/03/20 05:25:26;;;;;;;6.20;4.28;;;;;;;-7.02;76.85;100413.37;1770666;80;21192;-73
2021/03/20 05:27:54;;;;;;;7.22;4.00;;;;;;;-7.08;76.51;100419.10;1769071;79;21255;-73
2021/03/20 05:30:23;;;;;;;7.40;3.30;;;;;;;-7.13;76.58;100421.88;1767835;78;21159;-74
2021/03/20 05:32:50;;;;;;;5.40;3.30;;;;;;;-6.87;76.96;100424.45;1764821;80;21234;-73
2021/03/20 05:35:25;;;;;;;9.50;4.58;;;;;;;-6.73;76.30;100433.39;1771045;78;22139;-73
2021/03/20 05:37:52;;;;;;;7.22;4.17;;;;;;;-6.83;76.20;100434.77;1765838;78;21658;-73
2021/03/20 05:40:31;;;;;;;9.08;5.03;;;;;;;-6.45;76.90;100433.04;1761436;80;21264;-73
2021/03/20 05:43:29;;;;;;;9.83;4.47;;;;;;;-6.03;76.62;100434.80;1766772;78;21044;-73
2021/03/20 05:46:31;;;;;;;7.12;4.05;;;;;;;-5.74;76.16;100442.42;1745473;81;21638;-73
2021/03/20 05:49:24;;;;;;;6.78;4.65;;;;;;;-5.53;76.01;100439.66;1741010;81;21393;-73
2021/03/20 05:52:20;;;;;;;8.88;5.53;;;;;;;-4.62;76.32;100436.60;1841347;76;22744;-73
2021/03/20 05:55:20;;;;;;;6.85;4.75;;;;;;;-3.94;76.25;100429.77;1811716;78;21309;-75
2021/03/20 05:58:22;;;;;;;8.75;6.70;;;;;;;-2.96;76.04;100422.85;1779580;78;21286;-73
2021/03/20 06:01:11;;;;;;;10.93;6.78;;;;;;;-2.20;75.23;100428.84;1810578;77;21010;-74
2021/03/20 06:04:01;;;;;;;9.55;6.30;;;;;;;-1.22;74.88;100418.66;1743553;80;21631;-73
2021/03/20 06:06:48;;;;;;;8.73;5.87;;;;;;;-0.45;74.01;100416.86;1766988;79;21644;-74
2021/03/20 06:09:55;;;;;;;9.38;6.37;;;;;;;0.18;73.71;100414.34;1769761;80;21180;-74
2021/03/20 06:12:48;;;;;;;10.53;5.92;;;;;;;0.96;74.26;100412.55;1776389;79;21310;-74
2021/03/20 06:15:55;;;;;;;11.57;6.30;;;;;;;1.70;73.82;100416.08;1772766;79;21050;-72
2021/03/20 06:18:39;;;;;;;14.15;7.17;;;;;;;2.61;73.87;100419.36;1746622;81;21062;-72
2021/03/20 06:21:17;;;;;;;12.18;7.90;;;;;;;3.26;73.57;100417.31;1769438;79;22194;-73
2021/03/20 06:24:40;;;;;;;13.55;7.87;;;;;;;3.92;73.55;100415.94;1775087;79;21021;-73
2021/03/20 06:27:14;;;;;;;9.15;6.50;;;;;;;4.50;73.22;100415.35;1773596;78;21312;-73
2021/03/20 06:29:56;;;;;;;11.73;5.53;;;;;;;5.01;72.42;100403.94;1781918;78;21171;-72
2021/03/20 06:32:28;;;;;;;9.95;5.62;;;;;;;4.85;71.25;100408.92;1745837;80;21247;-73
2021/03/20 06:35:09;;;;;;;11.53;7.12;;;;;;;4.74;71.09;100412.08;1738055;80;21213;-72
2021/03/20 06:37:41;;;;;;;14.70;8.48;;;;;;;4.41;71.10;100419.34;1740917;81;21053;-73
2021/03/20 06:40:29;;;;;;;18.52;9.73;;;;;;;4.30;71.04;100422.48;1769940;80;21702;-74
2021/03/20 06:42:58;;;;;;;19.15;11.73;;;;;;;4.34;71.49;100429.32;1746553;80;21182;-75
2021/03/20 06:45:30;;;;;;;20.88;12.05;;;;;;;4.38;71.21;100425.84;1774096;79;21123;-74
2021/03/20 06:48:11;;;;;;;15.93;10.88;;;;;;;4.57;71.18;100423.92;1773762;79;21601;-74
2021/03/20 06:50:52;;;;;;;15.35;9.08;;;;;;;4.92;71.74;100426.06;1750478;80;21249;-77
2021/03/20 06:53:27;;;;;;;13.43;8.53;;;;;;;5.41;71.05;100420.22;1753196;80;23162;-75
2021/03/20 06:55:58;;;;;;;11.78;6.83;;;;;;;5.44;70.17;100417.58;1758006;81;21247;-75
2021/03/20 06:58:30;;;;;;;8.08;5.62;;;;;;;5.13;69.81;100415.43;1756202;80;21617;-74
2021/03/20 07:01:02;;;;;;;6.55;4.92;;;;;;;4.69;69.83;100427.20;1756416;80;21078;-74
2021/03/20 07:04:03;;;;;;;6.12;4.65;;;;;;;4.36;70.75;100419.83;1757535;80;21179;-73
2021/03/20 07:07:07;;;;;;;8.98;4.90;;;;;;;4.09;71.47;100426.12;1752435;80;21984;-75
2021/03/20 07:09:38;;;;;;;10.85;6.72;;;;;;;3.71;71.02;100428.17;1753869;80;21253;-73
2021/03/20 07:12:13;;;;;;;9.23;6.37;;;;;;;3.51;72.05;100436.52;1751138;80;21464;-76
2021/03/20 07:14:53;;;;;;;9.78;5.53;;;;;;;3.31;71.62;100432.78;1754008;81;21253;-76
2021/03/20 07:17:29;;;;;;;9.13;4.95;;;;;;;3.04;71.54;100432.49;1754495;80;21284;-75
2021/03/20 07:20:18;;;;;;;8.23;5.08;;;;;;;2.94;71.81;100429.52;1757656;80;21202;-74
2021/03/20 07:22:51;;;;;;;10.15;5.15;;;;;;;2.83;72.04;100443.34;1754558;80;21015;-75
2021/03/20 07:25:35;;;;;;;8.88;5.00;;;;;;;2.79;72.05;100441.63;1756142;81;21060;-75
2021/03/20 07:28:24;;;;;;;10.18;6.20;;;;;;;2.75;72.09;100445.09;1754061;80;21190;-76
2021/03/20 07:31:10;;;;;;;8.78;5.58;;;;;;;2.76;71.56;100446.80;1757316;80;21223;-76
2021/03/20 07:33:48;;;;;;;6.60;4.30;;;;;;;2.58;71.68;100454.62;1751993;81;21280;-76
2021/03/20 07:36:37;;;;;;;7.25;4.40;;;;;;;2.65;71.86;100447.27;1759015;80;21118;-76
2021/03/20 07:39:21;;;;;;;5.85;3.90;;;;;;;2.65;71.38;100443.41;1754577;81;21217;-76
2021/03/20 07:42:00;;;;;;;8.25;5.12;;;;;;;2.39;70.63;100449.49;1740583;80;21279;-76
2021/03/20 07:44:32;;;;;;;9.23;5.10;;;;;;;2.29;71.09;100456.80;1752164;80;21164;-76
2021/03/20 07:47:00;;;;;;;7.10;4.78;;;;;;;2.14;70.97;100452.98;1740380;80;21274;-75
2021/03/20 07:49:32;;;;;;;9.58;3.85;;;;;;;2.06;71.06;100454.70;1748447;80;21271;-76
2021/03/20 07:52:04;;;;;;;7.62;3.65;;;;;;;1.98;70.95;100452.97;1773933;78;21046;-75
2021/03/20 07:54:37;;;;;;;8.58;3.70;;;;;;;1.88;70.66;100451.28;1773334;79;21069;-74
2021/03/20 07:57:16;;;;;;;6.95;4.10;;;;;;;1.96;71.21;100456.41;1747212;80;21267;-73
2021/03/20 07:59:47;;;;;;;6.42;3.20;;;;;;;2.41;71.56;100453.38;1754612;80;21280;-74
2021/03/20 08:02:38;;;;;;;4.15;2.27;;;;;;;2.82;71.03;100462.24;1751213;80;21255;-75
2021/03/20 08:05:21;;;;;;;6.50;2.80;;;;;;;3.31;70.72;100451.70;1744035;80;21204;-74
2021/03/20 08:07:53;;;;;;;6.17;2.80;;;;;;;3.45;69.91;100441.73;1741836;80;21250;-74
2021/03/20 08:10:34;;;;;;;4.90;2.72;;;;;;;3.46;69.86;100444.72;1777786;78;21721;-75
2021/03/20 08:13:15;;;;;;;4.75;2.33;;;;;;;3.79;70.30;100436.72;1774771;79;22177;-74
2021/03/20 08:15:47;;;;;;;5.90;2.77;;;;;;;4.23;70.03;100438.06;1773015;78;21217;-75
2021/03/20 08:18:35;;;;;;;4.20;2.15;;;;;;;4.49;69.60;100434.34;1746776;80;21225;-73
2021/03/20 08:21:19;;;;;;;5.97;2.30;;;;;;;4.55;69.23;100434.27;1750836;80;21208;-75
2021/03/20 08:24:21;;;;;;;3.47;2.20;;;;;;;4.71;69.05;100430.64;1737876;82;21806;-76
2021/03/20 08:27:15;;;;;;;4.67;2.45;;;;;;;4.51;68.53;100430.02;1742055;80;23114;-73
2021/03/20 08:30:21;;;;;;;3.75;2.35;;;;;;;4.38;69.02;100428.43;1770005;79;21240;-75
2021/03/20 08:33:27;;;;;;;9.35;2.60;;;;;;;4.60;69.28;100419.56;1705833;81;21262;-75
2021/03/20 08:36:21;;;;;;;7.45;2.90;;;;;;;4.83;68.60;100417.13;1811946;77;27860;-76
2021/03/20 08:39:08;;;;;;;6.40;2.60;;;;;;;4.91;68.93;100416.59;1795163;78;21115;-77
2021/03/20 08:42:23;;;;;;;6.33;3.67;;;;;;;5.25;69.07;100414.84;1776278;78;21228;-76
2021/03/20 08:48:27;;;;;;;4.28;2.00;;;;;;;5.82;68.92;100413.09;1683991;83;21261;-75
2021/03/20 08:51:24;;;;;;;4.75;2.55;;;;;;;6.03;68.54;100415.77;1671743;84;21090;-73
2021/03/20 08:54:24;;;;;;;4.47;2.45;;;;;;;6.07;68.50;100419.60;1688803;83;21094;-73
2021/03/20 08:56:56;;;;;;;8.75;2.90;;;;;;;6.24;68.47;100408.48;1668954;84;21294;-72
2021/03/20 08:59:36;;;;;;;7.67;4.40;;;;;;;6.43;68.22;100404.66;1671395;84;22839;-75
2021/03/20 09:02:26;;;;;;;10.98;3.17;;;;;;;6.67;67.84;100415.45;1677697;84;21084;-74
2021/03/20 09:05:07;;;;;;;8.03;3.33;;;;;;;6.49;67.00;100414.91;1677727;84;21091;-74
2021/03/20 09:07:58;;;;;;;4.22;2.35;;;;;;;6.10;66.71;100410.47;1693562;82;21814;-74
2021/03/20 09:10:34;;;;;;;4.75;2.00;;;;;;;5.92;66.84;100408.59;1673652;83;21216;-74
2021/03/20 09:13:24;;;;;;;4.00;2.10;;;;;;;5.76;66.44;100409.28;1675350;84;21280;-76
2021/03/20 09:15:56;;;;;;;5.62;3.33;;;;;;;5.54;66.68;100410.06;1672310;84;21234;-76
2021/03/20 09:18:24;;;;;;;6.72;2.40;;;;;;;5.70;67.17;100404.65;1668055;83;21238;-75
2021/03/20 09:20:58;;;;;;;4.97;2.83;;;;;;;5.87;66.99;100393.55;1676276;83;21211;-74
2021/03/20 09:23:32;;;;;;;5.33;2.60;;;;;;;6.03;67.17;100390.30;1678188;83;21250;-74
2021/03/20 09:26:04;;;;;;;6.17;2.40;;;;;;;6.23;66.50;100371.77;1675465;83;21052;-78
2021/03/20 09:28:45;;;;;;;3.70;1.77;;;;;;;6.48;66.55;100376.89;1685686;83;21254;-79
2021/03/20 09:31:35;;;;;;;5.75;2.40;;;;;;;6.60;66.39;100372.34;1837881;76;22699;-78
2021/03/20 09:34:20;;;;;;;3.80;2.00;;;;;;;6.63;66.41;100382.65;1806873;77;21627;-81
2021/03/20 09:36:56;;;;;;;6.83;2.25;;;;;;;6.72;66.00;100361.69;1826780;77;22215;-81
2021/03/20 09:39:48;;;;;;;5.22;3.20;;;;;;;6.79;66.08;100365.87;1795776;78;21050;-77
2021/03/20 09:42:31;;;;;;;5.05;2.27;;;;;;;7.03;66.52;100374.00;1797918;78;22172;-89
2021/03/20 09:45:22;;;;;;;3.72;2.10;;;;;;;7.28;66.08;100369.11;1793199;78;21479;-88
2021/03/20 09:47:54;;;;;;;7.22;3.25;;;;;;;7.33;65.15;100365.52;1795862;78;21083;-80
2021/03/20 09:50:27;;;;;;;6.10;3.60;;;;;;;7.66;66.05;100372.55;1796664;78;21072;-82
2021/03/20 09:53:15;;;;;;;3.80;2.30;;;;;;;7.90;64.89;100367.15;1798203;78;21092;-77
2021/03/20 09:55:46;;;;;;;4.22;2.65;;;;;;;7.75;64.50;100370.55;1796680;78;21195;-76
2021/03/20 09:58:24;;;;;;;3.45;2.12;;;;;;;7.80;65.33;100375.19;1797928;78;21619;-79
2021/03/20 10:00:57;;;;;;;4.58;2.60;;;;;;;7.79;64.79;100363.55;1802154;78;21042;-78
2021/03/20 10:03:51;;;;;;;6.62;2.62;;;;;;;7.59;64.43;100361.45;1797777;77;21208;-76
2021/03/20 10:06:35;;;;;;;5.70;3.60;;;;;;;7.51;64.76;100351.23;1796692;78;21175;-77
2021/03/20 10:09:13;;;;;;;4.85;2.42;;;;;;;7.51;64.74;100346.50;1797609;78;21335;-80
2021/03/20 10:11:58;;;;;;;6.72;2.70;;;;;;;7.57;64.77;100350.23;1800287;78;21155;-79
2021/03/20 10:14:32;;;;;;;3.02;2.05;;;;;;;7.57;63.98;100342.44;1786306;78;21222;-79
2021/03/20 10:17:28;;;;;;;3.80;2.37;;;;;;;7.18;63.86;100345.11;1796242;78;21758;-78
2021/03/20 10:20:18;;;;;;;4.85;2.50;;;;;;;6.94;63.35;100355.14;1796460;78;21131;-79
2021/03/20 10:23:00;;;;;;;6.22;2.62;;;;;;;6.61;63.76;100350.68;1798024;78;21188;-77
2021/03/20 10:25:27;;;;;;;3.87;2.30;;;;;;;6.79;64.33;100352.90;1796087;78;21179;-77
2021/03/20 10:28:03;;;;;;;;;;;;;;;6.80;63.97;100348.11;1803191;78;21575;-76
2021/03/20 10:30:34;;;;;;;4.67;2.37;;;;;;;6.92;63.82;100351.75;1793703;78;20594;-79
2021/03/20 10:33:22;;;;;;;4.03;1.80;;;;;;;6.78;63.69;100353.80;1799449;77;21187;-80
2021/03/20 10:35:48;;;;;;;;;;;;;;;6.75;63.29;100356.46;1798009;78;21468;-79
2021/03/20 10:38:25;;;;;;;2.95;1.85;;;;;;;6.23;62.33;100353.17;1798000;78;20325;-77
2021/03/20 10:41:16;;;;;;;5.65;2.05;;;;;;;6.03;63.15;100353.55;1741155;80;21207;-77
2021/03/20 10:43:51;;;;;;;4.83;1.80;;;;;;;5.90;61.72;100349.44;1746940;80;21685;-76
2021/03/20 10:46:25;;;;;;;2.58;1.67;;;;;;;5.63;62.74;100349.91;1740147;80;21203;-73
2021/03/20 10:48:56;;;;;;;4.45;2.17;;;;;;;5.37;58.96;100353.80;1748283;80;21888;-79
2021/03/20 10:51:28;;;;;;;2.33;1.52;;;;;;;5.01;62.14;100346.99;1720580;81;21207;-78
2021/03/20 10:53:59;;;;;;;6.87;2.17;;;;;;;5.35;62.71;100348.66;1746882;80;21256;-81
2021/03/20 10:56:39;;;;;;;3.77;1.72;;;;;;;5.75;63.17;100339.36;1740240;81;21257;-80
2021/03/20 10:59:36;;;;;;;7.00;2.10;;;;;;;6.14;63.02;100340.39;1740874;81;21178;-79
2021/03/20 11:02:36;;;;;;;4.62;1.65;;;;;;;6.52;62.83;100327.53;1689395;83;21303;-78
2021/03/20 11:05:23;;;;;;;3.00;1.57;;;;;;;6.61;62.50;100327.33;1671808;84;21245;-79
2021/03/20 11:07:59;;;;;;;3.12;1.98;;;;;;;6.69;61.95;100335.81;1676679;83;21192;-77
2021/03/20 11:10:37;;;;;;;4.08;2.05;;;;;;;6.71;62.21;100327.55;1681465;83;21214;-78
2021/03/20 11:13:18;;;;;;;3.15;1.60;;;;;;;6.88;62.36;100320.69;1647163;85;21256;-79
2021/03/20 11:15:48;;;;;;;2.52;1.90;;;;;;;6.87;61.53;100317.25;1678620;83;21661;-82
2021/03/20 11:18:24;;;;;;;2.83;1.20;;;;;;;6.77;61.62;100315.73;1674227;83;21241;-82
2021/03/20 11:20:51;;;;;;;4.08;1.87;;;;;;;6.74;60.95;100311.91;1647726;84;21240;-80
2021/03/20 11:23:35;;;;;;;5.00;2.08;;;;;;;6.19;59.98;100304.86;1686143;82;21232;-81
2021/03/20 11:28:54;;;;;;;3.72;1.52;;;;;;;6.18;61.17;100294.51;1847261;75;22681;-80
2021/03/20 11:31:23;;;;;;;3.15;1.70;;;;;;;6.39;60.83;100299.27;1817258;76;21067;-79
2021/03/20 11:33:50;;;;;;;3.52;1.87;;;;;;;6.34;61.03;100286.83;1817593;76;21627;-76
2021/03/20 11:36:24;;;;;;;3.10;1.62;;;;;;;6.56;61.33;100279.90;1813185;76;21083;-79
2021/03/20 11:38:53;;;;;;;4.42;2.22;;;;;;;6.72;61.11;100278.64;1817811;76;21203;-80
2021/03/20 11:41:35;;;;;;;4.22;2.12;;;;;;;6.89;61.07;100276.95;1807943;76;21141;-80
2021/03/20 11:44:03;;;;;;;5.03;2.67;;;;;;;7.03;60.96;100271.44;1812189;76;21190;-77
2021/03/20 11:46:37;;;;;;;7.95;1.98;;;;;;;7.07;60.43;100269.20;1805034;77;22015;-79
2021/03/20 11:49:22;;;;;;;4.62;1.80;;;;;;;6.95;60.25;100260.81;1802973;78;21020;-79
2021/03/20 11:51:49;;;;;;;4.35;1.40;;;;;;;6.87;60.21;100252.35;1800980;78;21212;-74
2021/03/20 11:54:31;;;;;;;3.72;1.60;;;;;;;6.70;60.12;100243.66;1803933;78;21194;-76
2021/03/20 11:57:06;;;;;;;3.58;1.20;;;;;;;6.54;59.75;100233.22;1761343;79;21155;-77
2021/03/20 11:59:44;;;;;;;4.05;1.70;;;;;;;6.25;59.72;100232.57;1765047;79;21215;-77
2021/03/20 12:02:22;;;;;;;6.15;1.90;;;;;;;5.93;59.61;100228.89;1762327;78;21660;-82
2021/03/20 12:05:16;;;;;;;2.52;1.60;;;;;;;5.87;59.82;100222.50;1800196;78;21175;-81
2021/03/20 12:07:45;;;;;;;4.15;1.60;;;;;;;5.84;59.84;100221.27;1794301;78;21195;-81
2021/03/20 12:10:25;;;;;;;3.42;1.37;;;;;;;5.81;59.84;100217.45;1803872;78;21163;-78
2021/03/20 12:12:57;;;;;;;3.65;1.67;;;;;;;5.84;59.89;100218.23;1806346;78;21644;-79
2021/03/20 12:15:35;;;;;;;2.60;1.60;;;;;;;5.93;59.21;100222.41;1802578;78;21227;-78
2021/03/20 12:18:21;;;;;;;3.77;1.55;;;;;;;5.87;59.48;100217.32;1807789;78;21115;-80
2021/03/20 12:20:48;;;;;;;3.60;1.75;;;;;;;5.76;58.01;100212.80;1758521;79;21218;-80
2021/03/20 12:23:21;;;;;;;;;;;;;;;5.60;59.17;100213.52;1784644;78;21230;-86
2021/03/20 12:25:55;;;;;;;2.30;1.27;;;;;;;5.78;58.99;100207.14;1771950;79;20876;-86
2021/03/20 12:28:38;;;;;;;4.17;1.20;;;;;;;5.60;57.25;100205.33;1769024;79;21250;-86
2021/03/20 12:31:23;;;;;;;5.53;1.60;;;;;;;5.27;57.96;100208.55;1764087;79;21675;-87
2021/03/20 12:34:15;;;;;;;3.40;1.57;;;;;;;5.22;58.11;100191.79;1821426;77;22672;-87